Time;durP1;ratioP1;P1;durP2;ratioP2;P2;SDS_P1;SDS_P2;PMS_P1;PMS_P2;Temp;Humidity;BMP_temperature;BMP_pressure;BME280_temperature;BME280_humidity;BME280_pressure;Samples;Min_cycle;Max_cycle;Signal;HPM_P1;HPM_P2
2022/03/09 00:00:48;;;;;;;7.17;2.97;;;;;;;;;;5089739;28;20030;-70
2022/03/09 00:03:13;;;;;;;7.73;3.00;;;;;;;;;;5089357;28;20067;-70
2022/03/09 00:05:39;;;;;;;7.07;3.13;;;;;;;;;;5090298;28;20028;-71
2022/03/09 00:08:04;;;;;;;5.80;2.60;;;;;;;;;;5091107;28;20695;-71
2022/03/09 00:10:29;;;;;;;5.73;2.67;;;;;;;;;;5090562;28;20044;-71
2022/03/09 00:12:54;;;;;;;8.80;3.03;;;;;;;;;;5091488;28;20035;-71
2022/03/09 00:15:20;;;;;;;6.87;3.00;;;;;;;;;;5089398;28;20044;-71
2022/03/09 00:17:45;;;;;;;5.83;2.70;;;;;;;;;;5092277;28;20637;-71
2022/03/09 00:20:10;;;;;;;7.67;2.80;;;;;;;;;;5085828;28;20192;-71
2022/03/09 00:22:36;;;;;;;5.80;2.63;;;;;;;;;;5089842;28;20085;-72
2022/03/09 00:25:02;;;;;;;5.63;2.57;;;;;;;;;;5091313;28;20034;-72
2022/03/09 00:27:27;;;;;;;5.97;2.70;;;;;;;;;;5101026;28;20383;-72
2022/03/09 00:29:53;;;;;;;7.60;3.33;;;;;;;;;;5083473;28;20046;-72
2022/03/09 00:32:18;;;;;;;7.27;3.03;;;;;;;;;;5083956;28;20579;-72
2022/03/09 00:34:43;;;;;;;6.17;2.83;;;;;;;;;;5081876;28;20515;-72
2022/03/09 00:37:08;;;;;;;5.40;2.70;;;;;;;;;;5085006;28;20069;-71
2022/03/09 00:39:34;;;;;;;7.87;2.70;;;;;;;;;;5082400;28;20027;-71
2022/03/09 00:41:59;;;;;;;6.33;2.90;;;;;;;;;;5085799;28;20066;-71
2022/03/09 00:44:24;;;;;;;6.47;3.00;;;;;;;;;;5096605;28;20035;-72
2022/03/09 00:46:49;;;;;;;5.30;2.73;;;;;;;;;;5090020;28;20058;-72
2022/03/09 00:49:15;;;;;;;5.30;2.60;;;;;;;;;;5089901;28;20031;-72
2022/03/09 00:51:40;;;;;;;7.27;2.77;;;;;;;;;;5096169;28;20035;-72
2022/03/09 00:54:05;;;;;;;7.57;3.17;;;;;;;;;;5081335;28;20616;-72
2022/03/09 00:56:30;;;;;;;6.03;2.83;;;;;;;;;;5086483;28;20027;-72
2022/03/09 00:58:56;;;;;;;6.90;2.70;;;;;;;;;;5081265;28;20028;-72
2022/03/09 01:01:21;;;;;;;7.73;3.23;;;;;;;;;;5085119;28;20420;-72
2022/03/09 01:03:46;;;;;;;6.00;2.97;;;;;;;;;;5081299;28;20020;-72
2022/03/09 01:06:12;;;;;;;6.57;2.50;;;;;;;;;;5080055;28;20028;-72
2022/03/09 01:08:37;;;;;;;8.00;3.00;;;;;;;;;;5086275;28;20035;-72
2022/03/09 01:11:02;;;;;;;9.83;3.60;;;;;;;;;;5087862;28;20039;-72
2022/03/09 01:13:28;;;;;;;5.27;2.47;;;;;;;;;;5081282;28;20024;-72
2022/03/09 01:15:53;;;;;;;6.77;2.80;;;;;;;;;;5093012;28;20036;-72
2022/03/09 01:18:19;;;;;;;5.87;2.80;;;;;;;;;;5093585;28;20111;-72
2022/03/09 01:20:44;;;;;;;6.77;3.03;;;;;;;;;;5085943;28;20028;-72
2022/03/09 01:23:09;;;;;;;8.90;3.80;;;;;;;;;;5084581;28;20564;-72
2022/03/09 01:25:35;;;;;;;5.93;3.17;;;;;;;;;;5080031;28;20043;-72
2022/03/09 01:28:00;;;;;;;8.80;3.57;;;;;;;;;;5092691;28;20020;-72
2022/03/09 01:30:25;;;;;;;4.87;2.67;;;;;;;;;;5085367;28;20036;-72
2022/03/09 01:32:51;;;;;;;6.70;3.10;;;;;;;;;;5085487;28;20107;-72
2022/03/09 01:35:17;;;;;;;14.10;3.33;;;;;;;;;;5092733;28;20080;-72
2022/03/09 01:37:42;;;;;;;7.00;3.30;;;;;;;;;;5080778;28;20024;-72
2022/03/09 01:40:08;;;;;;;7.27;3.13;;;;;;;;;;5085694;28;20028;-71
2022/03/09 01:42:33;;;;;;;7.07;3.13;;;;;;;;;;5081877;28;20031;-71
2022/03/09 01:45:02;;;;;;;8.10;3.43;;;;;;;;;;5084721;28;20028;-71
2022/03/09 01:47:28;;;;;;;7.27;3.20;;;;;;;;;;5076954;28;20024;-71
2022/03/09 01:49:53;;;;;;;6.87;3.03;;;;;;;;;;5083552;28;20059;-71
2022/03/09 01:52:18;;;;;;;7.97;3.30;;;;;;;;;;5082171;28;20034;-71
2022/03/09 01:54:44;;;;;;;7.53;3.27;;;;;;;;;;5080101;28;20024;-71
2022/03/09 01:57:09;;;;;;;8.23;3.30;;;;;;;;;;5084528;28;20034;-71
2022/03/09 01:59:34;;;;;;;7.17;2.87;;;;;;;;;;5081089;28;20059;-71
2022/03/09 02:01:59;;;;;;;5.67;3.20;;;;;;;;;;5091634;28;20023;-71
2022/03/09 02:04:25;;;;;;;9.10;3.50;;;;;;;;;;5076049;28;20039;-71
2022/03/09 02:06:50;;;;;;;7.40;3.40;;;;;;;;;;5081098;28;20051;-71
2022/03/09 02:11:59;;;;;;;7.43;3.07;;;;;;;;;;5091084;28;20043;-71
2022/03/09 02:14:28;;;;;;;8.63;3.60;;;;;;;;;;5082407;28;20258;-71
2022/03/09 02:16:54;;;;;;;11.83;4.07;;;;;;;;;;5087365;28;20027;-71
2022/03/09 02:19:20;;;;;;;11.30;3.73;;;;;;;;;;5082402;28;20265;-71
2022/03/09 02:21:45;;;;;;;6.33;2.93;;;;;;;;;;5081552;28;20111;-71
2022/03/09 02:24:10;;;;;;;7.50;3.13;;;;;;;;;;5081380;28;20119;-71
2022/03/09 02:26:36;;;;;;;7.80;3.60;;;;;;;;;;5083857;28;20032;-71
2022/03/09 02:29:01;;;;;;;7.80;3.60;;;;;;;;;;5079897;28;20534;-71
2022/03/09 02:31:26;;;;;;;6.30;3.47;;;;;;;;;;5086081;28;20167;-71
2022/03/09 02:33:52;;;;;;;6.33;3.07;;;;;;;;;;5087105;28;20123;-71
2022/03/09 02:36:20;;;;;;;7.53;3.70;;;;;;;;;;5091303;28;20028;-71
2022/03/09 02:38:45;;;;;;;8.00;3.87;;;;;;;;;;5088629;28;20430;-71
2022/03/09 02:41:10;;;;;;;6.63;3.17;;;;;;;;;;5099259;28;20027;-71
2022/03/09 02:43:35;;;;;;;7.60;3.10;;;;;;;;;;5087217;28;20028;-71
2022/03/09 02:46:01;;;;;;;7.73;3.23;;;;;;;;;;5084787;28;20476;-71
2022/03/09 02:48:26;;;;;;;7.20;3.33;;;;;;;;;;5083349;28;20035;-71
2022/03/09 02:50:51;;;;;;;7.60;3.20;;;;;;;;;;5083137;28;20059;-71
2022/03/09 02:53:16;;;;;;;7.13;3.43;;;;;;;;;;5085388;28;20032;-71
2022/03/09 02:55:42;;;;;;;11.93;3.27;;;;;;;;;;5094376;28;20571;-71
2022/03/09 02:58:07;;;;;;;8.80;4.03;;;;;;;;;;5084596;28;20408;-71
2022/03/09 03:00:33;;;;;;;10.40;4.17;;;;;;;;;;5092428;28;20416;-71
2022/03/09 03:02:58;;;;;;;7.37;3.67;;;;;;;;;;5083267;28;20024;-71
2022/03/09 03:05:23;;;;;;;6.07;3.07;;;;;;;;;;5083636;28;20108;-71
2022/03/09 03:07:49;;;;;;;8.23;3.50;;;;;;;;;;5085117;28;20035;-71
2022/03/09 03:10:14;;;;;;;5.93;3.20;;;;;;;;;;5074837;28;20174;-71
2022/03/09 03:12:39;;;;;;;6.17;3.00;;;;;;;;;;5043314;28;20029;-71
2022/03/09 03:15:05;;;;;;;5.97;2.90;;;;;;;;;;5052344;28;20016;-71
2022/03/09 03:17:34;;;;;;;9.60;2.93;;;;;;;;;;5043054;28;20036;-71
2022/03/09 03:19:59;;;;;;;6.10;2.83;;;;;;;;;;5038429;28;20333;-71
2022/03/09 03:22:24;;;;;;;8.10;2.97;;;;;;;;;;5050150;28;20278;-71
2022/03/09 03:24:49;;;;;;;36.27;4.27;;;;;;;;;;5048116;28;20033;-71
2022/03/09 03:27:15;;;;;;;6.67;2.80;;;;;;;;;;5043295;28;20023;-71
2022/03/09 03:29:40;;;;;;;7.03;3.17;;;;;;;;;;5039944;28;20021;-71
2022/03/09 03:32:05;;;;;;;5.80;2.70;;;;;;;;;;5049433;28;20477;-71
2022/03/09 03:34:31;;;;;;;7.37;2.83;;;;;;;;;;5043491;28;20021;-71
2022/03/09 03:36:56;;;;;;;5.60;2.60;;;;;;;;;;5048097;28;20024;-71
2022/03/09 03:39:21;;;;;;;9.30;3.40;;;;;;;;;;5048018;28;20021;-71
2022/03/09 03:41:47;;;;;;;7.43;2.83;;;;;;;;;;5041373;28;20032;-71
2022/03/09 03:44:12;;;;;;;7.20;3.30;;;;;;;;;;5048526;28;20036;-71
2022/03/09 03:46:37;;;;;;;5.57;2.30;;;;;;;;;;5042559;28;20055;-71
2022/03/09 03:49:03;;;;;;;6.03;3.17;;;;;;;;;;5044766;28;20060;-71
2022/03/09 03:51:28;;;;;;;6.60;2.80;;;;;;;;;;5042082;28;20021;-71
2022/03/09 03:53:54;;;;;;;7.90;3.53;;;;;;;;;;5045619;28;20454;-71
2022/03/09 03:56:19;;;;;;;6.70;2.80;;;;;;;;;;5051923;28;20567;-71
2022/03/09 03:58:44;;;;;;;6.33;2.97;;;;;;;;;;5043702;28;20512;-71
2022/03/09 04:01:09;;;;;;;6.73;2.73;;;;;;;;;;5042486;28;20021;-71
2022/03/09 04:03:35;;;;;;;10.30;3.63;;;;;;;;;;5043207;28;20025;-71
2022/03/09 04:06:00;;;;;;;8.17;3.37;;;;;;;;;;5055284;28;20504;-71
2022/03/09 04:08:25;;;;;;;6.17;2.83;;;;;;;;;;5038318;28;20048;-71
2022/03/09 04:10:51;;;;;;;6.53;3.07;;;;;;;;;;5084257;28;20044;-71
2022/03/09 04:13:16;;;;;;;38.90;5.97;;;;;;;;;;5087226;28;20098;-71
2022/03/09 04:15:41;;;;;;;6.47;2.80;;;;;;;;;;5086844;28;20240;-71
2022/03/09 04:18:07;;;;;;;6.17;2.87;;;;;;;;;;5088601;28;20492;-71
2022/03/09 04:20:32;;;;;;;7.20;3.10;;;;;;;;;;5090507;28;20039;-71
2022/03/09 04:22:57;;;;;;;10.17;3.27;;;;;;;;;;5092168;28;20039;-71
2022/03/09 04:25:22;;;;;;;8.67;3.57;;;;;;;;;;5084056;28;20020;-71
2022/03/09 04:27:48;;;;;;;8.13;3.63;;;;;;;;;;5090033;28;20020;-71
2022/03/09 04:30:13;;;;;;;8.07;3.63;;;;;;;;;;5082851;28;20036;-71
2022/03/09 04:32:38;;;;;;;7.30;3.57;;;;;;;;;;5083345;28;20046;-71
2022/03/09 04:35:05;;;;;;;9.53;3.47;;;;;;;;;;5089815;28;20115;-71
2022/03/09 04:37:30;;;;;;;8.17;3.80;;;;;;;;;;5093773;28;20020;-71
2022/03/09 04:39:57;;;;;;;12.60;4.07;;;;;;;;;;5095694;28;20385;-70
2022/03/09 04:42:22;;;;;;;7.50;3.60;;;;;;;;;;5083593;28;20067;-71
2022/03/09 04:44:47;;;;;;;12.37;4.00;;;;;;;;;;5090167;28;20298;-71
2022/03/09 04:47:13;;;;;;;8.03;3.97;;;;;;;;;;5098195;28;20020;-71
2022/03/09 04:49:38;;;;;;;8.33;3.43;;;;;;;;;;5096482;28;20032;-71
2022/03/09 04:52:03;;;;;;;8.00;3.40;;;;;;;;;;5084784;28;20032;-71
2022/03/09 04:54:29;;;;;;;13.17;3.80;;;;;;;;;;5090911;28;20107;-71
2022/03/09 04:56:54;;;;;;;9.40;3.60;;;;;;;;;;5088930;28;20042;-71
2022/03/09 04:59:20;;;;;;;9.13;3.60;;;;;;;;;;5092925;28;20039;-71
2022/03/09 05:01:45;;;;;;;10.40;3.70;;;;;;;;;;5091135;28;20106;-71
2022/03/09 05:04:10;;;;;;;11.37;4.50;;;;;;;;;;5090841;28;20027;-71
2022/03/09 05:06:35;;;;;;;10.50;4.70;;;;;;;;;;5094892;28;20062;-71
2022/03/09 05:09:01;;;;;;;11.07;5.73;;;;;;;;;;5088201;28;20052;-71
2022/03/09 05:11:26;;;;;;;15.93;7.50;;;;;;;;;;5097117;28;20047;-71
2022/03/09 05:13:51;;;;;;;10.27;5.33;;;;;;;;;;5088267;28;20354;-71
2022/03/09 05:16:16;;;;;;;21.23;7.27;;;;;;;;;;5090375;28;20129;-71
2022/03/09 05:18:42;;;;;;;14.13;6.40;;;;;;;;;;5082170;28;20020;-71
2022/03/09 05:21:08;;;;;;;8.70;4.03;;;;;;;;;;5091118;28;20023;-70
2022/03/09 05:23:33;;;;;;;10.20;4.60;;;;;;;;;;5082936;28;20032;-71
2022/03/09 05:25:59;;;;;;;10.30;4.87;;;;;;;;;;5085498;28;20030;-71
2022/03/09 05:28:24;;;;;;;13.03;4.70;;;;;;;;;;5091242;28;20092;-71
2022/03/09 05:30:49;;;;;;;9.07;4.83;;;;;;;;;;5093584;28;20151;-71
2022/03/09 05:33:14;;;;;;;9.77;4.93;;;;;;;;;;5084499;28;20042;-71
2022/03/09 05:35:40;;;;;;;10.23;4.10;;;;;;;;;;5085401;28;20071;-71
2022/03/09 05:38:05;;;;;;;7.17;3.47;;;;;;;;;;5083010;28;20020;-71
2022/03/09 05:40:30;;;;;;;8.97;4.00;;;;;;;;;;5089014;28;20024;-71
2022/03/09 05:42:56;;;;;;;11.77;4.77;;;;;;;;;;5082746;28;20028;-71
2022/03/09 05:45:21;;;;;;;11.63;3.90;;;;;;;;;;5082556;28;20504;-71
2022/03/09 05:47:46;;;;;;;8.47;3.97;;;;;;;;;;5082840;28;20028;-71
2022/03/09 05:50:12;;;;;;;22.73;5.67;;;;;;;;;;5081905;28;20074;-70
2022/03/09 05:52:37;;;;;;;8.47;4.20;;;;;;;;;;5081558;28;20031;-71
2022/03/09 05:55:02;;;;;;;12.23;4.20;;;;;;;;;;5082567;28;20036;-71
2022/03/09 05:57:28;;;;;;;9.33;3.93;;;;;;;;;;5082260;28;20204;-71
2022/03/09 05:59:53;;;;;;;11.20;5.37;;;;;;;;;;5083046;28;20020;-71
2022/03/09 06:02:18;;;;;;;9.33;4.27;;;;;;;;;;5081520;28;20036;-70
2022/03/09 06:04:45;;;;;;;8.40;4.53;;;;;;;;;;5081784;28;20477;-71
2022/03/09 06:07:10;;;;;;;10.83;4.70;;;;;;;;;;5081578;28;20107;-71
2022/03/09 06:09:35;;;;;;;10.67;4.27;;;;;;;;;;5080822;28;20713;-71
2022/03/09 06:12:00;;;;;;;9.17;4.33;;;;;;;;;;5081564;28;20742;-71
2022/03/09 06:14:26;;;;;;;8.43;3.63;;;;;;;;;;5085562;28;20895;-71
2022/03/09 06:16:51;;;;;;;8.17;4.17;;;;;;;;;;5085685;28;20020;-71
2022/03/09 06:19:16;;;;;;;13.03;4.30;;;;;;;;;;5086107;28;20048;-71
2022/03/09 06:21:42;;;;;;;8.57;4.13;;;;;;;;;;5085804;28;20283;-71
2022/03/09 06:24:07;;;;;;;10.13;4.37;;;;;;;;;;5085846;28;20032;-71
2022/03/09 06:26:33;;;;;;;12.03;5.17;;;;;;;;;;5085390;28;20032;-71
2022/03/09 06:28:58;;;;;;;7.90;3.47;;;;;;;;;;5085159;28;20116;-71
2022/03/09 06:31:23;;;;;;;7.83;3.37;;;;;;;;;;5085170;28;20028;-71
2022/03/09 06:33:49;;;;;;;13.30;4.03;;;;;;;;;;5088473;28;20080;-71
2022/03/09 06:36:18;;;;;;;12.77;4.53;;;;;;;;;;5086164;28;20149;-71
2022/03/09 06:38:43;;;;;;;11.40;3.87;;;;;;;;;;5085220;28;20164;-71
2022/03/09 06:41:08;;;;;;;10.50;3.63;;;;;;;;;;5084752;28;20039;-71
2022/03/09 06:43:34;;;;;;;8.17;3.87;;;;;;;;;;5084053;28;20028;-71
2022/03/09 06:45:59;;;;;;;7.87;3.57;;;;;;;;;;5086451;28;20587;-71
2022/03/09 06:48:24;;;;;;;8.70;3.97;;;;;;;;;;5066720;28;20021;-71
2022/03/09 06:50:49;;;;;;;8.63;3.47;;;;;;;;;;5087616;28;20153;-71
2022/03/09 06:53:15;;;;;;;8.10;3.73;;;;;;;;;;5091255;28;20055;-71
2022/03/09 06:55:40;;;;;;;10.07;3.47;;;;;;;;;;5087459;28;20083;-71
2022/03/09 06:58:05;;;;;;;7.83;3.87;;;;;;;;;;5086974;28;20024;-71
2022/03/09 07:00:30;;;;;;;14.73;3.93;;;;;;;;;;5084055;28;20020;-72
2022/03/09 07:02:56;;;;;;;9.80;4.33;;;;;;;;;;5097334;28;20457;-71
2022/03/09 07:05:22;;;;;;;11.70;5.47;;;;;;;;;;5087932;28;20031;-71
2022/03/09 07:07:47;;;;;;;14.90;4.20;;;;;;;;;;5091167;28;20468;-71
2022/03/09 07:10:13;;;;;;;9.53;4.10;;;;;;;;;;5095052;28;20241;-71
2022/03/09 07:12:39;;;;;;;10.67;4.17;;;;;;;;;;5088727;28;20157;-71
2022/03/09 07:15:05;;;;;;;10.33;3.77;;;;;;;;;;5093594;28;20100;-71
2022/03/09 07:17:30;;;;;;;8.23;3.83;;;;;;;;;;5085351;28;20071;-71
2022/03/09 07:19:55;;;;;;;9.13;4.00;;;;;;;;;;5084420;28;20032;-71
2022/03/09 07:22:20;;;;;;;9.10;4.00;;;;;;;;;;5082760;28;20027;-71
2022/03/09 07:24:46;;;;;;;12.20;4.07;;;;;;;;;;5082745;28;20089;-71
2022/03/09 07:27:11;;;;;;;15.17;5.20;;;;;;;;;;5084947;28;20028;-71
2022/03/09 07:29:36;;;;;;;11.63;4.50;;;;;;;;;;5084377;28;20457;-71
2022/03/09 07:32:01;;;;;;;14.60;4.27;;;;;;;;;;5086024;28;20032;-71
2022/03/09 07:34:27;;;;;;;9.27;4.37;;;;;;;;;;5085367;28;20028;-71
2022/03/09 07:36:57;;;;;;;9.63;3.77;;;;;;;;;;5084532;28;20023;-71
2022/03/09 07:39:23;;;;;;;10.03;4.60;;;;;;;;;;5086319;28;20026;-71
2022/03/09 07:41:48;;;;;;;13.83;4.70;;;;;;;;;;5067467;28;20019;-71
2022/03/09 07:44:15;;;;;;;10.40;3.90;;;;;;;;;;5068779;28;20037;-71
2022/03/09 07:46:41;;;;;;;18.17;4.57;;;;;;;;;;5075309;28;20024;-71
2022/03/09 07:49:08;;;;;;;8.00;3.70;;;;;;;;;;5079420;28;20054;-71
2022/03/09 07:51:33;;;;;;;8.27;4.00;;;;;;;;;;5072860;28;20024;-71
2022/03/09 07:53:59;;;;;;;7.67;3.37;;;;;;;;;;5075678;28;20024;-72
2022/03/09 07:56:24;;;;;;;8.37;3.20;;;;;;;;;;5077861;28;20464;-72
2022/03/09 07:58:49;;;;;;;9.17;3.30;;;;;;;;;;5076089;28;20035;-72
2022/03/09 08:01:14;;;;;;;7.93;3.30;;;;;;;;;;5071516;28;20487;-72
2022/03/09 08:03:40;;;;;;;7.33;3.07;;;;;;;;;;5081989;28;20688;-72
2022/03/09 08:06:05;;;;;;;9.33;3.47;;;;;;;;;;5073548;28;20032;-72
2022/03/09 08:08:31;;;;;;;7.73;3.40;;;;;;;;;;5083094;28;20150;-72
2022/03/09 08:10:56;;;;;;;6.03;2.90;;;;;;;;;;5081790;28;20583;-71
2022/03/09 08:13:21;;;;;;;6.70;2.93;;;;;;;;;;5080974;28;20279;-71
2022/03/09 08:15:47;;;;;;;6.40;3.10;;;;;;;;;;5084913;28;20020;-71
2022/03/09 08:18:12;;;;;;;9.95;3.30;;;;;;;;;;5082955;28;20028;-71
2022/03/09 08:20:37;;;;;;;8.32;3.00;;;;;;;;;;5079740;28;20543;-71
2022/03/09 08:23:02;;;;;;;5.78;2.60;;;;;;;;;;5077658;28;20008;-71
2022/03/09 08:25:28;;;;;;;6.32;3.20;;;;;;;;;;5082529;28;20042;-71
2022/03/09 08:27:53;;;;;;;7.75;2.88;;;;;;;;;;5091842;28;20032;-71
2022/03/09 08:30:18;;;;;;;8.20;3.00;;;;;;;;;;5087494;28;20032;-71
2022/03/09 08:32:43;;;;;;;6.93;3.17;;;;;;;;;;5075512;28;20066;-71
2022/03/09 08:35:09;;;;;;;7.97;3.67;;;;;;;;;;5080145;28;20215;-71
2022/03/09 08:37:34;;;;;;;7.15;3.35;;;;;;;;;;5076458;28;20035;-71
2022/03/09 08:39:59;;;;;;;6.50;3.15;;;;;;;;;;5081363;28;20043;-71
2022/03/09 08:42:24;;;;;;;6.57;3.03;;;;;;;;;;5082269;28;20681;-71
2022/03/09 08:44:51;;;;;;;8.13;3.20;;;;;;;;;;5081253;28;20135;-71
2022/03/09 08:47:16;;;;;;;6.35;3.00;;;;;;;;;;5081784;28;20035;-71
2022/03/09 08:49:41;;;;;;;6.43;3.28;;;;;;;;;;5072596;28;20021;-71
2022/03/09 08:52:07;;;;;;;8.63;3.55;;;;;;;;;;5074290;28;20042;-71
2022/03/09 08:54:33;;;;;;;6.40;2.90;;;;;;;;;;5082485;28;20404;-72
2022/03/09 08:56:58;;;;;;;8.20;3.30;;;;;;;;;;5082181;28;20020;-71
2022/03/09 08:59:23;;;;;;;10.85;3.35;;;;;;;;;;5095079;28;20175;-72
2022/03/09 09:01:48;;;;;;;8.55;3.40;;;;;;;;;;5084651;28;20031;-72
2022/03/09 09:04:16;;;;;;;6.85;3.08;;;;;;;;;;5075839;28;20377;-71
2022/03/09 09:06:41;;;;;;;7.47;3.10;;;;;;;;;;5081622;28;20054;-72
2022/03/09 09:09:06;;;;;;;7.93;3.50;;;;;;;;;;5078338;28;20122;-71
2022/03/09 09:11:32;;;;;;;7.10;2.90;;;;;;;;;;5079743;28;20040;-71
2022/03/09 09:14:01;;;;;;;6.93;3.00;;;;;;;;;;5078247;28;20037;-72
2022/03/09 09:16:27;;;;;;;7.70;3.40;;;;;;;;;;5077252;28;20388;-72
2022/03/09 09:18:52;;;;;;;6.78;2.78;;;;;;;;;;5082892;28;20073;-72
2022/03/09 09:21:18;;;;;;;7.35;3.53;;;;;;;;;;5075629;28;20047;-73
2022/03/09 09:23:43;;;;;;;7.20;3.50;;;;;;;;;;5079530;28;20107;-71
2022/03/09 09:26:08;;;;;;;7.70;3.55;;;;;;;;;;5073926;28;20668;-73
2022/03/09 09:28:33;;;;;;;7.82;3.20;;;;;;;;;;5081802;28;20036;-72
2022/03/09 09:30:59;;;;;;;7.65;3.40;;;;;;;;;;5079255;28;20031;-72
2022/03/09 09:33:24;;;;;;;9.50;3.70;;;;;;;;;;5072900;28;20024;-72
2022/03/09 09:35:50;;;;;;;7.03;3.30;;;;;;;;;;5085429;28;20060;-72
2022/03/09 09:38:15;;;;;;;8.07;4.00;;;;;;;;;;5072672;28;20020;-72
2022/03/09 09:40:43;;;;;;;7.63;3.07;;;;;;;;;;5082791;28;20024;-72
2022/03/09 09:43:15;;;;;;;8.70;3.93;;;;;;;;;;5073991;28;20067;-72
2022/03/09 09:45:41;;;;;;;10.53;3.83;;;;;;;;;;5073362;28;20032;-72
2022/03/09 09:48:07;;;;;;;8.47;3.00;;;;;;;;;;5081618;28;20027;-72
2022/03/09 09:50:32;;;;;;;8.13;3.00;;;;;;;;;;5077726;28;20035;-72
2022/03/09 09:52:58;;;;;;;8.57;3.43;;;;;;;;;;5081893;28;20636;-72
2022/03/09 09:55:27;;;;;;;7.83;3.53;;;;;;;;;;5078687;28;20512;-72
2022/03/09 09:57:52;;;;;;;9.13;3.63;;;;;;;;;;5071271;28;20040;-72
2022/03/09 10:00:17;;;;;;;8.13;3.73;;;;;;;;;;5089582;28;20502;-72
2022/03/09 10:02:43;;;;;;;8.37;3.50;;;;;;;;;;5102887;28;20404;-72
2022/03/09 10:05:12;;;;;;;7.77;3.53;;;;;;;;;;5097448;28;20226;-71
2022/03/09 10:07:56;;;;;;;9.33;3.53;;;;;;;;;;5085391;28;20056;-72
2022/03/09 10:10:21;;;;;;;8.43;3.47;;;;;;;;;;5084208;28;20108;-71
2022/03/09 10:12:47;;;;;;;7.83;3.33;;;;;;;;;;5083781;28;20615;-71
2022/03/09 10:15:15;;;;;;;9.20;3.63;;;;;;;;;;5082643;28;20020;-72
2022/03/09 10:17:40;;;;;;;11.70;4.00;;;;;;;;;;5071088;28;20012;-72
2022/03/09 10:20:12;;;;;;;9.80;3.67;;;;;;;;;;5083227;28;20024;-72
2022/03/09 10:22:46;;;;;;;7.70;3.58;;;;;;;;;;5082039;28;20635;-72
2022/03/09 10:25:11;;;;;;;11.53;3.97;;;;;;;;;;5086977;28;20024;-72
2022/03/09 10:27:41;;;;;;;13.10;4.20;;;;;;;;;;5099221;28;20852;-72
2022/03/09 10:30:10;;;;;;;11.13;3.40;;;;;;;;;;5081153;28;20420;-71
2022/03/09 10:32:44;;;;;;;8.60;3.47;;;;;;;;;;5077449;28;20027;-72
2022/03/09 10:35:11;;;;;;;9.17;3.90;;;;;;;;;;5072713;28;20512;-72
2022/03/09 10:37:37;;;;;;;12.13;4.40;;;;;;;;;;5081806;28;20054;-72
2022/03/09 10:40:13;;;;;;;7.50;3.43;;;;;;;;;;5082069;28;20091;-72
2022/03/09 10:42:39;;;;;;;7.53;2.93;;;;;;;;;;5083120;28;20023;-71
2022/03/09 10:45:07;;;;;;;9.30;3.10;;;;;;;;;;5081337;28;20020;-70
2022/03/09 10:47:35;;;;;;;6.97;3.30;;;;;;;;;;5088381;28;20035;-70
2022/03/09 10:50:30;;;;;;;10.00;4.30;;;;;;;;;;5086867;28;20023;-70
2022/03/09 10:52:57;;;;;;;8.33;3.73;;;;;;;;;;5078333;28;20414;-70
2022/03/09 10:55:28;;;;;;;5.90;3.17;;;;;;;;;;5089602;28;20015;-71
2022/03/09 10:58:06;;;;;;;7.30;3.40;;;;;;;;;;5093271;28;20024;-70
2022/03/09 11:01:01;;;;;;;8.47;3.70;;;;;;;;;;5089894;28;20061;-70
2022/03/09 11:03:27;;;;;;;7.70;3.43;;;;;;;;;;5050360;28;20767;-71
2022/03/09 11:05:56;;;;;;;8.50;3.60;;;;;;;;;;5060255;28;20035;-71
2022/03/09 11:08:26;;;;;;;8.93;3.20;;;;;;;;;;5054717;28;20090;-70
2022/03/09 11:10:51;;;;;;;6.37;3.03;;;;;;;;;;5058081;28;20044;-71
2022/03/09 11:13:17;;;;;;;7.00;3.10;;;;;;;;;;5058371;28;20039;-71
2022/03/09 11:15:44;;;;;;;8.03;3.53;;;;;;;;;;5063378;28;20151;-70
2022/03/09 11:18:13;;;;;;;9.40;3.80;;;;;;;;;;5064328;28;20489;-70
2022/03/09 11:20:39;;;;;;;6.70;3.33;;;;;;;;;;5054814;28;20074;-70
2022/03/09 11:23:04;;;;;;;7.13;3.27;;;;;;;;;;5057560;28;20715;-70
2022/03/09 11:25:30;;;;;;;7.07;3.30;;;;;;;;;;5063458;28;20472;-70
2022/03/09 11:27:56;;;;;;;7.60;3.67;;;;;;;;;;5061502;28;20036;-70
2022/03/09 11:30:24;;;;;;;8.77;2.70;;;;;;;;;;5057894;28;20147;-69
2022/03/09 11:32:50;;;;;;;6.20;2.90;;;;;;;;;;5046370;28;20405;-70
2022/03/09 11:35:34;;;;;;;7.43;3.47;;;;;;;;;;5052337;28;20027;-70
2022/03/09 11:38:00;;;;;;;8.57;3.57;;;;;;;;;;5064393;28;20016;-70
2022/03/09 11:40:26;;;;;;;6.67;3.00;;;;;;;;;;5065107;28;20029;-70
2022/03/09 11:42:51;;;;;;;7.73;3.53;;;;;;;;;;5066837;28;20041;-70
2022/03/09 11:45:16;;;;;;;8.43;3.60;;;;;;;;;;5067936;28;20040;-70
2022/03/09 11:48:09;;;;;;;8.03;3.20;;;;;;;;;;5066613;28;20536;-69
2022/03/09 11:50:56;;;;;;;9.50;3.90;;;;;;;;;;5074471;28;20170;-70
2022/03/09 11:53:38;;;;;;;6.40;3.07;;;;;;;;;;5021758;28;20108;-70
2022/03/09 11:56:22;;;;;;;6.45;3.28;;;;;;;;;;5025377;28;20033;-69
2022/03/09 11:59:06;;;;;;;5.70;2.90;;;;;;;;;;5023790;28;20036;-69
2022/03/09 12:01:31;;;;;;;8.10;3.47;;;;;;;;;;5025977;28;20017;-70
2022/03/09 12:03:56;;;;;;;7.57;3.30;;;;;;;;;;5024446;28;20120;-70
2022/03/09 12:06:40;;;;;;;9.93;3.17;;;;;;;;;;5035807;28;20029;-69
2022/03/09 12:09:05;;;;;;;5.63;2.70;;;;;;;;;;5027994;28;20076;-69
2022/03/09 12:11:51;;;;;;;8.93;3.53;;;;;;;;;;5035895;28;20505;-70
2022/03/09 12:14:17;;;;;;;6.83;2.80;;;;;;;;;;5021561;28;20060;-70
2022/03/09 12:16:58;;;;;;;7.33;3.20;;;;;;;;;;5033712;28;20025;-70
2022/03/09 12:19:24;;;;;;;6.63;3.45;;;;;;;;;;5022757;28;20034;-70
2022/03/09 12:21:50;;;;;;;7.27;3.17;;;;;;;;;;5024832;28;20040;-70
2022/03/09 12:24:19;;;;;;;8.20;3.43;;;;;;;;;;5025430;28;20741;-70
2022/03/09 12:26:48;;;;;;;7.37;3.57;;;;;;;;;;5025420;28;20025;-71
2022/03/09 12:29:23;;;;;;;12.57;3.57;;;;;;;;;;5023326;28;20111;-70
2022/03/09 12:32:01;;;;;;;6.63;2.87;;;;;;;;;;5049313;28;20461;-69
2022/03/09 12:34:27;;;;;;;7.53;3.10;;;;;;;;;;5045468;28;20064;-69
2022/03/09 12:36:53;;;;;;;6.63;3.00;;;;;;;;;;5055153;28;20480;-69
2022/03/09 12:39:18;;;;;;;6.37;3.00;;;;;;;;;;5047998;28;20096;-70
2022/03/09 12:41:44;;;;;;;7.43;3.40;;;;;;;;;;5048741;28;20096;-70
2022/03/09 12:44:14;;;;;;;8.50;3.37;;;;;;;;;;5044617;28;20293;-69
2022/03/09 12:46:40;;;;;;;8.70;3.77;;;;;;;;;;5045438;28;20070;-70
2022/03/09 12:49:06;;;;;;;7.27;3.27;;;;;;;;;;5045429;28;20095;-69
2022/03/09 12:51:32;;;;;;;7.53;3.43;;;;;;;;;;5045214;28;20439;-69
2022/03/09 12:53:58;;;;;;;8.70;2.87;;;;;;;;;;5048755;28;20021;-68
2022/03/09 12:56:24;;;;;;;6.50;2.85;;;;;;;;;;5045105;28;20021;-69
2022/03/09 12:58:49;;;;;;;6.65;3.05;;;;;;;;;;5045801;28;20553;-69
2022/03/09 13:01:15;;;;;;;7.82;3.05;;;;;;;;;;5044299;28;20024;-68
2022/03/09 13:03:44;;;;;;;7.95;3.30;;;;;;;;;;5050970;28;20405;-69
2022/03/09 13:06:25;;;;;;;6.80;3.10;;;;;;;;;;5053513;28;20020;-69
2022/03/09 13:08:51;;;;;;;7.72;3.10;;;;;;;;;;5051137;28;20027;-69
2022/03/09 13:11:26;;;;;;;7.72;3.33;;;;;;;;;;5096151;28;20520;-69
2022/03/09 13:13:51;;;;;;;5.85;3.00;;;;;;;;;;5095210;28;20024;-69
2022/03/09 13:16:16;;;;;;;7.38;3.28;;;;;;;;;;5094764;28;20099;-69
2022/03/09 13:18:42;;;;;;;6.82;3.28;;;;;;;;;;5094223;28;20059;-69
2022/03/09 13:21:07;;;;;;;8.10;3.65;;;;;;;;;;5086699;28;20089;-69
2022/03/09 13:23:41;;;;;;;6.10;3.03;;;;;;;;;;5096002;28;20086;-69
2022/03/09 13:26:12;;;;;;;6.22;3.08;;;;;;;;;;5090561;28;20099;-69
2022/03/09 13:28:38;;;;;;;6.82;2.67;;;;;;;;;;5088853;28;20108;-69
2022/03/09 13:31:03;;;;;;;6.22;2.95;;;;;;;;;;5095697;28;20059;-69
2022/03/09 13:33:28;;;;;;;8.32;3.60;;;;;;;;;;5084825;28;20485;-69
2022/03/09 13:35:54;;;;;;;5.65;2.70;;;;;;;;;;5094715;28;20081;-69
2022/03/09 13:38:29;;;;;;;7.47;3.28;;;;;;;;;;5088324;28;20020;-69
2022/03/09 13:41:04;;;;;;;6.50;3.00;;;;;;;;;;5098785;28;20015;-68
2022/03/09 13:43:32;;;;;;;7.93;3.40;;;;;;;;;;5101191;28;20551;-68
2022/03/09 13:46:10;;;;;;;7.53;3.22;;;;;;;;;;5094533;28;20479;-69
2022/03/09 13:48:35;;;;;;;7.20;3.55;;;;;;;;;;5085685;28;20039;-69
2022/03/09 13:51:01;;;;;;;7.53;2.85;;;;;;;;;;5085531;28;20400;-69
2022/03/09 13:53:37;;;;;;;5.47;2.85;;;;;;;;;;5077905;28;20500;-69
2022/03/09 13:56:03;;;;;;;7.93;3.45;;;;;;;;;;5085403;28;20078;-69
2022/03/09 13:58:37;;;;;;;25.45;10.10;;;;;;;;;;5084999;28;20384;-69
2022/03/09 14:01:04;;;;;;;17.75;7.05;;;;;;;;;;5097155;28;20110;-69
2022/03/09 14:03:31;;;;;;;11.15;4.78;;;;;;;;;;5094290;28;20046;-69
2022/03/09 14:05:56;;;;;;;8.75;3.50;;;;;;;;;;5096659;28;20024;-69
2022/03/09 14:08:26;;;;;;;6.68;3.30;;;;;;;;;;5094104;28;20031;-69
2022/03/09 14:11:02;;;;;;;6.75;3.15;;;;;;;;;;5094885;28;20058;-69
2022/03/09 14:13:27;;;;;;;6.07;3.22;;;;;;;;;;5092357;28;20023;-70
2022/03/09 14:15:52;;;;;;;6.57;3.00;;;;;;;;;;5091792;28;20032;-70
2022/03/09 14:18:17;;;;;;;7.32;3.03;;;;;;;;;;5094602;28;20044;-69
2022/03/09 14:20:43;;;;;;;6.82;3.00;;;;;;;;;;5084675;28;20048;-69
2022/03/09 14:23:11;;;;;;;11.38;3.33;;;;;;;;;;5083364;28;20032;-69
2022/03/09 14:25:36;;;;;;;7.65;3.05;;;;;;;;;;5093379;28;20047;-69
2022/03/09 14:28:01;;;;;;;7.30;3.13;;;;;;;;;;5085795;28;20422;-70
2022/03/09 14:30:27;;;;;;;6.63;3.03;;;;;;;;;;5098678;28;20458;-69
2022/03/09 14:32:52;;;;;;;5.80;2.63;;;;;;;;;;5096218;28;20628;-69
2022/03/09 14:35:17;;;;;;;7.78;2.90;;;;;;;;;;5103979;28;20549;-69
2022/03/09 14:37:46;;;;;;;6.13;3.00;;;;;;;;;;5098268;28;20096;-69
2022/03/09 14:43:14;;;;;;;6.95;3.50;;;;;;;;;;5089553;28;20050;-69